Главная страница
METAR-TAF:

METAR-TAF

Аэропорты :

Мариехамн, Финляндия

широта: 60-07N, долгота: 019-54E, высота над уровнем моря: 6 м

Текущие метеонаблюдения

Эта сводка был подготовлена 5 минут назад, в 09:50 UTC
Ветер 10 Узел от северо-северо-восточный
Температура 4°C
Влажность 65%
Давление 1012 hPa
Видимость 10 км и более
Нет облачности ниже 1500 м, и нет кучево-дождевой облачности

METAR: EFMA 260950Z 03010KT CAVOK 04/M02 Q1012

Время: 11:55 (09:55 UTC)

Прогноз

Эта сводка был подготовлена 1 час и 22 минут назад, в 08:33 UTC
Прогноз действительный с 26-го 09 UTC до 26-го 18 UTC
Ветер 11 Узел от северо-северо-восточный
Видимость 10 км и более
Рассеянная облачность на высоте 1000 фута
изменения
С 26-го 09 UTC до 26-го 11 UTC
Видимость 10 км и более
Нет облачности ниже 1500 м, и нет кучево-дождевой облачности

TAF: EFMA 260833Z 2609/2618 03011KT 9999 BKN010 BECMG 2609/2611 CAVOK

Метеонаблюдения и прогнозы для более 4000 аэропортов (сводки METAR и TAF).

Имеющиеся станции представлены на карте желтыми и красными точками.

Чтобы увидеть название станции, наведите на нее мышь.

Затем щелкните, чтобы увидеть метеонаблюдения и метеопрогнозы.

Управление картой: чтобы увеличить масштаб, щелкните зеленые кнопки с черным крестиком; чтобы уменьшить масштаб, щелкните зеленую кнопку с тире; для просмотра соседних карт щелкайте зеленые стрелки.


METAR-TAF: